sensor_id;sensor_type;location;lat;lon;timestamp;P1;durP1;ratioP1;P2;durP2;ratioP2
20344;SDS011;10330;48.816;9.278;2022-12-16T00:01:23;45.47;;;16.77;;
20344;SDS011;10330;48.816;9.278;2022-12-16T00:03:51;49.57;;;18.17;;
20344;SDS011;10330;48.816;9.278;2022-12-16T00:06:23;45.93;;;17.97;;
20344;SDS011;10330;48.816;9.278;2022-12-16T00:08:50;39.33;;;17.83;;
20344;SDS011;10330;48.816;9.278;2022-12-16T00:11:17;41.50;;;17.07;;
20344;SDS011;10330;48.816;9.278;2022-12-16T00:13:47;43.30;;;17.47;;
20344;SDS011;10330;48.816;9.278;2022-12-16T00:16:18;51.13;;;20.70;;
20344;SDS011;10330;48.816;9.278;2022-12-16T00:18:45;48.30;;;19.73;;
20344;SDS011;10330;48.816;9.278;2022-12-16T00:21:12;49.57;;;17.93;;
20344;SDS011;10330;48.816;9.278;2022-12-16T00:23:39;38.80;;;17.70;;
20344;SDS011;10330;48.816;9.278;2022-12-16T00:26:09;50.13;;;16.60;;
20344;SDS011;10330;48.816;9.278;2022-12-16T00:28:36;36.23;;;15.53;;
20344;SDS011;10330;48.816;9.278;2022-12-16T00:31:03;38.47;;;16.83;;
20344;SDS011;10330;48.816;9.278;2022-12-16T00:33:33;47.97;;;19.63;;
20344;SDS011;10330;48.816;9.278;2022-12-16T00:35:59;41.93;;;17.87;;
20344;SDS011;10330;48.816;9.278;2022-12-16T00:38:26;44.40;;;16.77;;
20344;SDS011;10330;48.816;9.278;2022-12-16T00:40:52;43.65;;;17.60;;
20344;SDS011;10330;48.816;9.278;2022-12-16T00:43:19;42.43;;;16.97;;
20344;SDS011;10330;48.816;9.278;2022-12-16T00:45:45;46.37;;;17.90;;
20344;SDS011;10330;48.816;9.278;2022-12-16T00:48:12;45.40;;;17.70;;
20344;SDS011;10330;48.816;9.278;2022-12-16T00:50:38;38.87;;;17.70;;
20344;SDS011;10330;48.816;9.278;2022-12-16T00:53:05;34.83;;;15.53;;
20344;SDS011;10330;48.816;9.278;2022-12-16T00:55:31;49.87;;;18.37;;
20344;SDS011;10330;48.816;9.278;2022-12-16T00:57:58;43.13;;;18.13;;
20344;SDS011;10330;48.816;9.278;2022-12-16T01:00:24;44.30;;;16.77;;
20344;SDS011;10330;48.816;9.278;2022-12-16T01:02:51;44.40;;;16.90;;
20344;SDS011;10330;48.816;9.278;2022-12-16T01:05:18;44.67;;;18.53;;
20344;SDS011;10330;48.816;9.278;2022-12-16T01:07:46;44.67;;;19.03;;
20344;SDS011;10330;48.816;9.278;2022-12-16T01:10:13;44.20;;;17.60;;
20344;SDS011;10330;48.816;9.278;2022-12-16T01:12:39;33.50;;;15.50;;
20344;SDS011;10330;48.816;9.278;2022-12-16T01:15:06;41.67;;;15.87;;
20344;SDS011;10330;48.816;9.278;2022-12-16T01:17:34;40.77;;;17.33;;
20344;SDS011;10330;48.816;9.278;2022-12-16T01:20:01;42.10;;;18.50;;
20344;SDS011;10330;48.816;9.278;2022-12-16T01:22:28;42.47;;;17.20;;
20344;SDS011;10330;48.816;9.278;2022-12-16T01:24:57;54.13;;;22.50;;
20344;SDS011;10330;48.816;9.278;2022-12-16T01:27:25;44.93;;;17.90;;
20344;SDS011;10330;48.816;9.278;2022-12-16T01:29:55;42.83;;;18.47;;
20344;SDS011;10330;48.816;9.278;2022-12-16T01:32:21;35.30;;;16.83;;
20344;SDS011;10330;48.816;9.278;2022-12-16T01:34:49;48.87;;;18.17;;
20344;SDS011;10330;48.816;9.278;2022-12-16T01:37:16;46.73;;;18.67;;
20344;SDS011;10330;48.816;9.278;2022-12-16T01:39:58;39.00;;;16.70;;
20344;SDS011;10330;48.816;9.278;2022-12-16T01:42:24;41.07;;;16.17;;
20344;SDS011;10330;48.816;9.278;2022-12-16T01:44:55;40.97;;;17.30;;
20344;SDS011;10330;48.816;9.278;2022-12-16T01:47:42;36.77;;;15.83;;
20344;SDS011;10330;48.816;9.278;2022-12-16T01:50:10;47.97;;;18.43;;
20344;SDS011;10330;48.816;9.278;2022-12-16T01:52:42;41.60;;;16.03;;
20344;SDS011;10330;48.816;9.278;2022-12-16T01:55:14;34.33;;;15.77;;
20344;SDS011;10330;48.816;9.278;2022-12-16T01:57:49;39.80;;;17.90;;
20344;SDS011;10330;48.816;9.278;2022-12-16T02:00:19;50.03;;;17.03;;
20344;SDS011;10330;48.816;9.278;2022-12-16T02:02:46;33.13;;;15.20;;
20344;SDS011;10330;48.816;9.278;2022-12-16T02:05:15;42.43;;;15.63;;
20344;SDS011;10330;48.816;9.278;2022-12-16T02:08:08;45.27;;;18.37;;
20344;SDS011;10330;48.816;9.278;2022-12-16T02:19:01;49.83;;;18.53;;
20344;SDS011;10330;48.816;9.278;2022-12-16T02:21:47;44.63;;;17.80;;
20344;SDS011;10330;48.816;9.278;2022-12-16T02:24:46;40.20;;;16.33;;
20344;SDS011;10330;48.816;9.278;2022-12-16T02:30:29;34.00;;;15.67;;
20344;SDS011;10330;48.816;9.278;2022-12-16T02:44:08;37.35;;;16.30;;
20344;SDS011;10330;48.816;9.278;2022-12-16T02:46:41;40.60;;;17.33;;
20344;SDS011;10330;48.816;9.278;2022-12-16T02:51:38;42.93;;;16.40;;
20344;SDS011;10330;48.816;9.278;2022-12-16T02:54:07;41.87;;;17.73;;
20344;SDS011;10330;48.816;9.278;2022-12-16T02:59:33;41.83;;;18.70;;
20344;SDS011;10330;48.816;9.278;2022-12-16T03:02:26;44.00;;;17.23;;
20344;SDS011;10330;48.816;9.278;2022-12-16T03:05:13;39.73;;;15.67;;
20344;SDS011;10330;48.816;9.278;2022-12-16T03:07:48;43.03;;;15.67;;
20344;SDS011;10330;48.816;9.278;2022-12-16T03:10:18;40.73;;;16.83;;
20344;SDS011;10330;48.816;9.278;2022-12-16T03:12:50;46.13;;;16.53;;
20344;SDS011;10330;48.816;9.278;2022-12-16T03:15:19;36.47;;;16.57;;
20344;SDS011;10330;48.816;9.278;2022-12-16T03:17:48;45.90;;;17.83;;
20344;SDS011;10330;48.816;9.278;2022-12-16T03:20:18;43.63;;;17.37;;
20344;SDS011;10330;48.816;9.278;2022-12-16T03:22:51;37.43;;;16.47;;
20344;SDS011;10330;48.816;9.278;2022-12-16T03:25:20;37.77;;;16.40;;
20344;SDS011;10330;48.816;9.278;2022-12-16T03:30:30;40.27;;;18.03;;
20344;SDS011;10330;48.816;9.278;2022-12-16T03:33:02;35.30;;;15.27;;
20344;SDS011;10330;48.816;9.278;2022-12-16T03:35:36;40.17;;;15.23;;
20344;SDS011;10330;48.816;9.278;2022-12-16T03:38:07;38.43;;;15.93;;
20344;SDS011;10330;48.816;9.278;2022-12-16T03:40:35;37.20;;;15.03;;
20344;SDS011;10330;48.816;9.278;2022-12-16T03:43:05;45.87;;;18.37;;
20344;SDS011;10330;48.816;9.278;2022-12-16T03:45:36;30.80;;;14.03;;
20344;SDS011;10330;48.816;9.278;2022-12-16T03:48:08;40.20;;;16.07;;
20344;SDS011;10330;48.816;9.278;2022-12-16T03:50:36;38.63;;;17.23;;
20344;SDS011;10330;48.816;9.278;2022-12-16T03:53:04;34.60;;;16.93;;
20344;SDS011;10330;48.816;9.278;2022-12-16T03:55:31;43.77;;;17.33;;
20344;SDS011;10330;48.816;9.278;2022-12-16T03:57:57;35.50;;;16.27;;
20344;SDS011;10330;48.816;9.278;2022-12-16T04:00:24;41.50;;;16.23;;
20344;SDS011;10330;48.816;9.278;2022-12-16T04:02:51;39.30;;;15.47;;
20344;SDS011;10330;48.816;9.278;2022-12-16T04:05:17;36.33;;;15.50;;
20344;SDS011;10330;48.816;9.278;2022-12-16T04:07:43;36.33;;;15.97;;
20344;SDS011;10330;48.816;9.278;2022-12-16T04:10:10;33.33;;;14.87;;
20344;SDS011;10330;48.816;9.278;2022-12-16T04:12:36;29.47;;;13.33;;
20344;SDS011;10330;48.816;9.278;2022-12-16T04:15:21;33.47;;;13.97;;
20344;SDS011;10330;48.816;9.278;2022-12-16T04:18:07;40.77;;;14.90;;
20344;SDS011;10330;48.816;9.278;2022-12-16T04:20:57;30.00;;;13.70;;
20344;SDS011;10330;48.816;9.278;2022-12-16T04:23:46;34.90;;;13.00;;
20344;SDS011;10330;48.816;9.278;2022-12-16T04:26:33;29.33;;;13.37;;
20344;SDS011;10330;48.816;9.278;2022-12-16T04:29:18;31.90;;;14.50;;
20344;SDS011;10330;48.816;9.278;2022-12-16T04:31:44;31.80;;;14.30;;
20344;SDS011;10330;48.816;9.278;2022-12-16T04:34:11;39.67;;;14.33;;
20344;SDS011;10330;48.816;9.278;2022-12-16T04:36:54;32.83;;;12.77;;
20344;SDS011;10330;48.816;9.278;2022-12-16T04:39:40;34.00;;;14.97;;
20344;SDS011;10330;48.816;9.278;2022-12-16T04:42:26;34.37;;;12.83;;
20344;SDS011;10330;48.816;9.278;2022-12-16T04:45:11;26.77;;;12.57;;
20344;SDS011;10330;48.816;9.278;2022-12-16T04:47:56;34.77;;;13.80;;
20344;SDS011;10330;48.816;9.278;2022-12-16T04:50:40;27.03;;;12.83;;
20344;SDS011;10330;48.816;9.278;2022-12-16T04:53:28;38.03;;;13.63;;
20344;SDS011;10330;48.816;9.278;2022-12-16T04:56:13;29.30;;;13.53;;
20344;SDS011;10330;48.816;9.278;2022-12-16T04:58:58;34.00;;;13.67;;
20344;SDS011;10330;48.816;9.278;2022-12-16T05:01:43;30.97;;;12.97;;
20344;SDS011;10330;48.816;9.278;2022-12-16T05:04:28;31.60;;;12.63;;
20344;SDS011;10330;48.816;9.278;2022-12-16T05:07:13;30.67;;;12.00;;
20344;SDS011;10330;48.816;9.278;2022-12-16T05:10:05;30.13;;;13.23;;
20344;SDS011;10330;48.816;9.278;2022-12-16T05:12:52;29.30;;;12.43;;
20344;SDS011;10330;48.816;9.278;2022-12-16T05:15:36;33.80;;;13.20;;
20344;SDS011;10330;48.816;9.278;2022-12-16T05:18:21;30.03;;;12.30;;
20344;SDS011;10330;48.816;9.278;2022-12-16T05:21:06;35.07;;;12.73;;
20344;SDS011;10330;48.816;9.278;2022-12-16T05:23:50;37.13;;;15.13;;
20344;SDS011;10330;48.816;9.278;2022-12-16T05:26:35;30.20;;;12.90;;
20344;SDS011;10330;48.816;9.278;2022-12-16T05:29:27;29.23;;;12.83;;
20344;SDS011;10330;48.816;9.278;2022-12-16T05:32:12;32.27;;;13.07;;
20344;SDS011;10330;48.816;9.278;2022-12-16T05:35:00;34.30;;;13.90;;
20344;SDS011;10330;48.816;9.278;2022-12-16T05:37:44;29.07;;;12.40;;
20344;SDS011;10330;48.816;9.278;2022-12-16T05:40:29;31.45;;;12.43;;
20344;SDS011;10330;48.816;9.278;2022-12-16T05:43:14;25.23;;;11.67;;
20344;SDS011;10330;48.816;9.278;2022-12-16T05:45:58;32.67;;;12.77;;
20344;SDS011;10330;48.816;9.278;2022-12-16T05:48:43;25.43;;;12.47;;
20344;SDS011;10330;48.816;9.278;2022-12-16T05:51:27;30.90;;;12.30;;
20344;SDS011;10330;48.816;9.278;2022-12-16T05:54:12;29.60;;;13.43;;
20344;SDS011;10330;48.816;9.278;2022-12-16T05:56:57;24.90;;;10.83;;
20344;SDS011;10330;48.816;9.278;2022-12-16T05:59:42;26.87;;;12.10;;
20344;SDS011;10330;48.816;9.278;2022-12-16T06:02:26;34.80;;;12.97;;
20344;SDS011;10330;48.816;9.278;2022-12-16T06:05:11;25.77;;;12.33;;
20344;SDS011;10330;48.816;9.278;2022-12-16T06:07:59;33.00;;;12.93;;
20344;SDS011;10330;48.816;9.278;2022-12-16T06:10:43;27.13;;;12.53;;
20344;SDS011;10330;48.816;9.278;2022-12-16T06:13:28;25.27;;;12.30;;
20344;SDS011;10330;48.816;9.278;2022-12-16T06:16:13;29.70;;;12.13;;
20344;SDS011;10330;48.816;9.278;2022-12-16T06:18:57;32.17;;;11.87;;
20344;SDS011;10330;48.816;9.278;2022-12-16T06:21:42;26.57;;;11.43;;
20344;SDS011;10330;48.816;9.278;2022-12-16T06:24:27;26.10;;;11.73;;
20344;SDS011;10330;48.816;9.278;2022-12-16T06:27:14;22.33;;;10.47;;
20344;SDS011;10330;48.816;9.278;2022-12-16T06:30:00;30.80;;;11.77;;
20344;SDS011;10330;48.816;9.278;2022-12-16T06:32:45;26.63;;;11.83;;
20344;SDS011;10330;48.816;9.278;2022-12-16T06:35:30;24.80;;;10.37;;
20344;SDS011;10330;48.816;9.278;2022-12-16T06:38:14;34.97;;;12.05;;
20344;SDS011;10330;48.816;9.278;2022-12-16T06:40:59;21.33;;;10.17;;
20344;SDS011;10330;48.816;9.278;2022-12-16T06:43:43;24.93;;;11.03;;
20344;SDS011;10330;48.816;9.278;2022-12-16T06:46:28;25.37;;;10.30;;
20344;SDS011;10330;48.816;9.278;2022-12-16T06:49:13;24.00;;;10.20;;
20344;SDS011;10330;48.816;9.278;2022-12-16T06:51:57;26.30;;;11.03;;
20344;SDS011;10330;48.816;9.278;2022-12-16T06:54:42;20.83;;;9.77;;
20344;SDS011;10330;48.816;9.278;2022-12-16T06:57:27;20.77;;;9.60;;
20344;SDS011;10330;48.816;9.278;2022-12-16T07:00:12;21.17;;;9.97;;
20344;SDS011;10330;48.816;9.278;2022-12-16T07:02:57;28.80;;;10.70;;
20344;SDS011;10330;48.816;9.278;2022-12-16T07:05:41;24.03;;;9.60;;
20344;SDS011;10330;48.816;9.278;2022-12-16T07:08:26;18.97;;;9.90;;
20344;SDS011;10330;48.816;9.278;2022-12-16T07:11:11;24.17;;;9.33;;
20344;SDS011;10330;48.816;9.278;2022-12-16T07:13:55;22.23;;;10.50;;
20344;SDS011;10330;48.816;9.278;2022-12-16T07:16:40;27.63;;;11.03;;
20344;SDS011;10330;48.816;9.278;2022-12-16T07:19:25;22.10;;;10.97;;
20344;SDS011;10330;48.816;9.278;2022-12-16T07:22:09;36.73;;;11.17;;
20344;SDS011;10330;48.816;9.278;2022-12-16T07:24:54;31.13;;;12.47;;
20344;SDS011;10330;48.816;9.278;2022-12-16T07:27:38;26.00;;;11.50;;
20344;SDS011;10330;48.816;9.278;2022-12-16T07:30:27;23.57;;;10.43;;
20344;SDS011;10330;48.816;9.278;2022-12-16T07:33:12;22.23;;;11.27;;
20344;SDS011;10330;48.816;9.278;2022-12-16T07:35:57;31.17;;;12.03;;
20344;SDS011;10330;48.816;9.278;2022-12-16T07:38:41;24.07;;;11.13;;
20344;SDS011;10330;48.816;9.278;2022-12-16T07:41:26;28.20;;;12.10;;
20344;SDS011;10330;48.816;9.278;2022-12-16T07:44:11;30.50;;;12.20;;
20344;SDS011;10330;48.816;9.278;2022-12-16T07:46:55;28.27;;;10.87;;
20344;SDS011;10330;48.816;9.278;2022-12-16T07:49:40;29.87;;;12.07;;
20344;SDS011;10330;48.816;9.278;2022-12-16T07:52:25;29.43;;;11.50;;
20344;SDS011;10330;48.816;9.278;2022-12-16T07:55:09;27.17;;;11.87;;
20344;SDS011;10330;48.816;9.278;2022-12-16T07:57:54;24.10;;;11.03;;
20344;SDS011;10330;48.816;9.278;2022-12-16T08:00:38;34.23;;;10.93;;
20344;SDS011;10330;48.816;9.278;2022-12-16T08:03:40;27.53;;;10.27;;
20344;SDS011;10330;48.816;9.278;2022-12-16T08:06:25;24.83;;;10.63;;
20344;SDS011;10330;48.816;9.278;2022-12-16T08:09:10;24.33;;;11.37;;
20344;SDS011;10330;48.816;9.278;2022-12-16T08:11:54;24.77;;;10.33;;
20344;SDS011;10330;48.816;9.278;2022-12-16T08:14:39;20.53;;;8.97;;
20344;SDS011;10330;48.816;9.278;2022-12-16T08:17:24;16.03;;;8.03;;
20344;SDS011;10330;48.816;9.278;2022-12-16T08:20:08;28.13;;;11.67;;
20344;SDS011;10330;48.816;9.278;2022-12-16T08:22:53;24.60;;;9.20;;
20344;SDS011;10330;48.816;9.278;2022-12-16T08:25:38;18.70;;;8.73;;
20344;SDS011;10330;48.816;9.278;2022-12-16T08:28:23;23.20;;;9.37;;
20344;SDS011;10330;48.816;9.278;2022-12-16T08:31:07;20.17;;;9.60;;
20344;SDS011;10330;48.816;9.278;2022-12-16T08:33:52;18.57;;;8.73;;
20344;SDS011;10330;48.816;9.278;2022-12-16T08:36:40;12.80;;;6.03;;
20344;SDS011;10330;48.816;9.278;2022-12-16T08:39:24;21.07;;;9.30;;
20344;SDS011;10330;48.816;9.278;2022-12-16T08:42:12;21.13;;;9.13;;
20344;SDS011;10330;48.816;9.278;2022-12-16T08:44:57;18.37;;;9.87;;
20344;SDS011;10330;48.816;9.278;2022-12-16T08:47:45;22.23;;;9.73;;
20344;SDS011;10330;48.816;9.278;2022-12-16T08:50:29;23.17;;;10.23;;
20344;SDS011;10330;48.816;9.278;2022-12-16T08:53:14;17.27;;;8.20;;
20344;SDS011;10330;48.816;9.278;2022-12-16T08:55:59;13.87;;;6.13;;
20344;SDS011;10330;48.816;9.278;2022-12-16T08:58:44;16.53;;;7.80;;
20344;SDS011;10330;48.816;9.278;2022-12-16T09:01:30;18.30;;;9.10;;
20344;SDS011;10330;48.816;9.278;2022-12-16T09:04:15;15.52;;;7.32;;
20344;SDS011;10330;48.816;9.278;2022-12-16T09:07:00;23.67;;;10.13;;
20344;SDS011;10330;48.816;9.278;2022-12-16T09:09:45;21.65;;;9.18;;
20344;SDS011;10330;48.816;9.278;2022-12-16T09:12:29;26.80;;;9.70;;
20344;SDS011;10330;48.816;9.278;2022-12-16T09:15:14;15.57;;;8.47;;
20344;SDS011;10330;48.816;9.278;2022-12-16T09:17:59;23.80;;;8.57;;
20344;SDS011;10330;48.816;9.278;2022-12-16T09:20:44;21.53;;;8.87;;
20344;SDS011;10330;48.816;9.278;2022-12-16T09:23:28;16.30;;;8.33;;
20344;SDS011;10330;48.816;9.278;2022-12-16T09:26:13;14.80;;;7.07;;
20344;SDS011;10330;48.816;9.278;2022-12-16T09:28:58;27.47;;;9.80;;
20344;SDS011;10330;48.816;9.278;2022-12-16T09:31:43;23.00;;;8.70;;
20344;SDS011;10330;48.816;9.278;2022-12-16T09:34:27;18.73;;;8.33;;
20344;SDS011;10330;48.816;9.278;2022-12-16T09:37:14;22.40;;;9.70;;
20344;SDS011;10330;48.816;9.278;2022-12-16T09:39:59;21.47;;;10.37;;
20344;SDS011;10330;48.816;9.278;2022-12-16T09:42:53;20.87;;;9.20;;
20344;SDS011;10330;48.816;9.278;2022-12-16T09:46:05;22.55;;;9.30;;
20344;SDS011;10330;48.816;9.278;2022-12-16T09:52:04;20.97;;;9.10;;
20344;SDS011;10330;48.816;9.278;2022-12-16T09:54:53;17.40;;;9.23;;
20344;SDS011;10330;48.816;9.278;2022-12-16T09:57:38;16.43;;;8.70;;
20344;SDS011;10330;48.816;9.278;2022-12-16T10:00:24;17.17;;;7.43;;
20344;SDS011;10330;48.816;9.278;2022-12-16T10:03:15;20.17;;;8.90;;
20344;SDS011;10330;48.816;9.278;2022-12-16T10:09:02;14.23;;;8.27;;
20344;SDS011;10330;48.816;9.278;2022-12-16T10:12:19;16.27;;;8.07;;
20344;SDS011;10330;48.816;9.278;2022-12-16T10:15:22;18.70;;;7.93;;
20344;SDS011;10330;48.816;9.278;2022-12-16T10:21:32;17.93;;;8.43;;
20344;SDS011;10330;48.816;9.278;2022-12-16T10:27:46;15.47;;;8.50;;
20344;SDS011;10330;48.816;9.278;2022-12-16T10:30:36;18.03;;;8.97;;
20344;SDS011;10330;48.816;9.278;2022-12-16T10:33:24;23.77;;;8.30;;
20344;SDS011;10330;48.816;9.278;2022-12-16T10:36:16;13.50;;;6.67;;
20344;SDS011;10330;48.816;9.278;2022-12-16T10:42:16;15.83;;;8.60;;
20344;SDS011;10330;48.816;9.278;2022-12-16T10:45:17;19.63;;;7.97;;
20344;SDS011;10330;48.816;9.278;2022-12-16T10:48:18;20.83;;;8.33;;
20344;SDS011;10330;48.816;9.278;2022-12-16T10:51:13;22.70;;;9.40;;
20344;SDS011;10330;48.816;9.278;2022-12-16T10:54:23;14.90;;;7.87;;
20344;SDS011;10330;48.816;9.278;2022-12-16T11:00:10;15.37;;;8.20;;
20344;SDS011;10330;48.816;9.278;2022-12-16T11:03:15;14.70;;;6.60;;
20344;SDS011;10330;48.816;9.278;2022-12-16T11:06:00;21.73;;;7.67;;
20344;SDS011;10330;48.816;9.278;2022-12-16T11:08:45;12.63;;;6.67;;
20344;SDS011;10330;48.816;9.278;2022-12-16T11:11:30;13.35;;;6.78;;
20344;SDS011;10330;48.816;9.278;2022-12-16T11:17:15;17.03;;;7.97;;
20344;SDS011;10330;48.816;9.278;2022-12-16T11:23:08;20.50;;;8.60;;
20344;SDS011;10330;48.816;9.278;2022-12-16T11:26:03;18.03;;;7.87;;
20344;SDS011;10330;48.816;9.278;2022-12-16T11:29:03;20.37;;;8.70;;
20344;SDS011;10330;48.816;9.278;2022-12-16T11:34:58;16.52;;;7.22;;
20344;SDS011;10330;48.816;9.278;2022-12-16T11:37:45;22.40;;;8.77;;
20344;SDS011;10330;48.816;9.278;2022-12-16T11:40:33;19.77;;;8.15;;
20344;SDS011;10330;48.816;9.278;2022-12-16T11:43:17;17.60;;;7.87;;
20344;SDS011;10330;48.816;9.278;2022-12-16T11:49:13;15.63;;;6.13;;
20344;SDS011;10330;48.816;9.278;2022-12-16T11:52:09;15.93;;;7.10;;
20344;SDS011;10330;48.816;9.278;2022-12-16T11:58:16;13.80;;;6.90;;
20344;SDS011;10330;48.816;9.278;2022-12-16T12:01:27;15.37;;;7.30;;
20344;SDS011;10330;48.816;9.278;2022-12-16T12:04:21;21.03;;;7.43;;
20344;SDS011;10330;48.816;9.278;2022-12-16T12:07:14;13.63;;;6.53;;
20344;SDS011;10330;48.816;9.278;2022-12-16T12:10:29;14.10;;;5.22;;
20344;SDS011;10330;48.816;9.278;2022-12-16T12:13:40;13.33;;;6.60;;
20344;SDS011;10330;48.816;9.278;2022-12-16T12:17:04;16.55;;;7.45;;
20344;SDS011;10330;48.816;9.278;2022-12-16T12:19:55;13.23;;;6.78;;
20344;SDS011;10330;48.816;9.278;2022-12-16T12:23:02;13.07;;;6.72;;
20344;SDS011;10330;48.816;9.278;2022-12-16T12:26:02;15.40;;;6.93;;
20344;SDS011;10330;48.816;9.278;2022-12-16T12:38:49;17.90;;;6.73;;
20344;SDS011;10330;48.816;9.278;2022-12-16T12:45:25;15.17;;;6.40;;
20344;SDS011;10330;48.816;9.278;2022-12-16T12:55:39;15.45;;;6.90;;
20344;SDS011;10330;48.816;9.278;2022-12-16T12:58:29;17.15;;;6.50;;
20344;SDS011;10330;48.816;9.278;2022-12-16T13:01:18;19.50;;;7.23;;
20344;SDS011;10330;48.816;9.278;2022-12-16T13:04:11;15.10;;;7.27;;
20344;SDS011;10330;48.816;9.278;2022-12-16T13:07:00;14.73;;;7.53;;
20344;SDS011;10330;48.816;9.278;2022-12-16T13:10:33;18.35;;;7.07;;
20344;SDS011;10330;48.816;9.278;2022-12-16T13:13:41;13.43;;;7.53;;
20344;SDS011;10330;48.816;9.278;2022-12-16T13:16:10;15.37;;;6.97;;
20344;SDS011;10330;48.816;9.278;2022-12-16T13:31:55;13.50;;;7.83;;
20344;SDS011;10330;48.816;9.278;2022-12-16T13:37:57;15.57;;;7.37;;
20344;SDS011;10330;48.816;9.278;2022-12-16T13:41:00;25.87;;;8.60;;
20344;SDS011;10330;48.816;9.278;2022-12-16T14:08:28;23.10;;;7.67;;
20344;SDS011;10330;48.816;9.278;2022-12-16T14:11:20;14.93;;;8.32;;
20344;SDS011;10330;48.816;9.278;2022-12-16T14:14:32;20.23;;;8.13;;
20344;SDS011;10330;48.816;9.278;2022-12-16T14:21:33;19.20;;;8.32;;
20344;SDS011;10330;48.816;9.278;2022-12-16T14:24:34;17.87;;;8.50;;
20344;SDS011;10330;48.816;9.278;2022-12-16T14:27:27;17.10;;;8.50;;
20344;SDS011;10330;48.816;9.278;2022-12-16T14:30:21;17.97;;;8.73;;
20344;SDS011;10330;48.816;9.278;2022-12-16T14:36:16;19.63;;;8.97;;
20344;SDS011;10330;48.816;9.278;2022-12-16T14:39:12;17.10;;;6.57;;
20344;SDS011;10330;48.816;9.278;2022-12-16T14:42:18;16.30;;;8.07;;
20344;SDS011;10330;48.816;9.278;2022-12-16T14:45:04;16.85;;;6.72;;
20344;SDS011;10330;48.816;9.278;2022-12-16T14:54:17;13.20;;;7.30;;
20344;SDS011;10330;48.816;9.278;2022-12-16T14:57:23;14.20;;;7.13;;
20344;SDS011;10330;48.816;9.278;2022-12-16T15:00:26;17.23;;;6.70;;
20344;SDS011;10330;48.816;9.278;2022-12-16T15:06:06;16.63;;;7.57;;
20344;SDS011;10330;48.816;9.278;2022-12-16T15:09:07;12.33;;;6.77;;
20344;SDS011;10330;48.816;9.278;2022-12-16T15:12:00;14.50;;;7.37;;
20344;SDS011;10330;48.816;9.278;2022-12-16T15:14:46;14.30;;;6.17;;
20344;SDS011;10330;48.816;9.278;2022-12-16T15:17:36;20.53;;;7.13;;
20344;SDS011;10330;48.816;9.278;2022-12-16T15:20:33;16.20;;;6.50;;
20344;SDS011;10330;48.816;9.278;2022-12-16T15:26:19;16.80;;;6.97;;
20344;SDS011;10330;48.816;9.278;2022-12-16T15:32:32;15.70;;;5.77;;
20344;SDS011;10330;48.816;9.278;2022-12-16T15:38:43;15.80;;;6.67;;
20344;SDS011;10330;48.816;9.278;2022-12-16T15:41:31;17.13;;;6.60;;
20344;SDS011;10330;48.816;9.278;2022-12-16T15:44:22;15.03;;;6.77;;
20344;SDS011;10330;48.816;9.278;2022-12-16T15:47:18;21.30;;;6.07;;
20344;SDS011;10330;48.816;9.278;2022-12-16T15:50:23;12.00;;;6.83;;
20344;SDS011;10330;48.816;9.278;2022-12-16T15:53:32;14.82;;;7.15;;
20344;SDS011;10330;48.816;9.278;2022-12-16T15:56:21;12.80;;;6.30;;
20344;SDS011;10330;48.816;9.278;2022-12-16T15:59:33;15.02;;;7.65;;
20344;SDS011;10330;48.816;9.278;2022-12-16T16:02:28;11.90;;;6.13;;
20344;SDS011;10330;48.816;9.278;2022-12-16T16:05:15;13.70;;;6.80;;
20344;SDS011;10330;48.816;9.278;2022-12-16T16:08:07;15.90;;;7.13;;
20344;SDS011;10330;48.816;9.278;2022-12-16T16:10:53;18.63;;;7.70;;
20344;SDS011;10330;48.816;9.278;2022-12-16T16:13:38;17.65;;;7.38;;
20344;SDS011;10330;48.816;9.278;2022-12-16T16:16:23;19.53;;;7.33;;
20344;SDS011;10330;48.816;9.278;2022-12-16T16:19:27;21.45;;;7.03;;
20344;SDS011;10330;48.816;9.278;2022-12-16T16:22:13;13.00;;;6.53;;
20344;SDS011;10330;48.816;9.278;2022-12-16T16:25:00;14.57;;;7.33;;
20344;SDS011;10330;48.816;9.278;2022-12-16T16:27:45;20.70;;;7.73;;
20344;SDS011;10330;48.816;9.278;2022-12-16T16:30:30;29.57;;;9.10;;
20344;SDS011;10330;48.816;9.278;2022-12-16T16:33:15;20.77;;;9.10;;
20344;SDS011;10330;48.816;9.278;2022-12-16T16:36:05;18.63;;;7.40;;
20344;SDS011;10330;48.816;9.278;2022-12-16T16:38:59;20.97;;;7.03;;
20344;SDS011;10330;48.816;9.278;2022-12-16T16:41:44;22.00;;;8.20;;
20344;SDS011;10330;48.816;9.278;2022-12-16T16:44:29;24.10;;;9.23;;
20344;SDS011;10330;48.816;9.278;2022-12-16T16:47:15;26.20;;;7.83;;
20344;SDS011;10330;48.816;9.278;2022-12-16T16:50:03;19.00;;;8.93;;
20344;SDS011;10330;48.816;9.278;2022-12-16T16:53:02;18.77;;;8.53;;
20344;SDS011;10330;48.816;9.278;2022-12-16T16:55:51;25.47;;;8.80;;
20344;SDS011;10330;48.816;9.278;2022-12-16T16:58:37;17.95;;;8.07;;
20344;SDS011;10330;48.816;9.278;2022-12-16T17:01:22;17.83;;;8.73;;
20344;SDS011;10330;48.816;9.278;2022-12-16T17:04:06;20.37;;;8.20;;
20344;SDS011;10330;48.816;9.278;2022-12-16T17:06:51;20.67;;;8.97;;
20344;SDS011;10330;48.816;9.278;2022-12-16T17:09:39;18.23;;;8.90;;
20344;SDS011;10330;48.816;9.278;2022-12-16T17:12:25;37.40;;;11.53;;
20344;SDS011;10330;48.816;9.278;2022-12-16T17:15:24;24.87;;;11.07;;
20344;SDS011;10330;48.816;9.278;2022-12-16T17:18:14;21.53;;;10.70;;
20344;SDS011;10330;48.816;9.278;2022-12-16T17:20:59;24.17;;;10.50;;
20344;SDS011;10330;48.816;9.278;2022-12-16T17:23:44;34.47;;;11.40;;
20344;SDS011;10330;48.816;9.278;2022-12-16T17:26:32;27.10;;;10.77;;
20344;SDS011;10330;48.816;9.278;2022-12-16T17:29:24;20.47;;;9.77;;
20344;SDS011;10330;48.816;9.278;2022-12-16T17:32:10;25.13;;;9.67;;
20344;SDS011;10330;48.816;9.278;2022-12-16T17:34:58;23.20;;;10.07;;
20344;SDS011;10330;48.816;9.278;2022-12-16T17:37:43;17.33;;;9.70;;
20344;SDS011;10330;48.816;9.278;2022-12-16T17:40:28;20.60;;;9.10;;
20344;SDS011;10330;48.816;9.278;2022-12-16T17:43:16;20.20;;;9.33;;
20344;SDS011;10330;48.816;9.278;2022-12-16T17:46:02;20.13;;;10.13;;
20344;SDS011;10330;48.816;9.278;2022-12-16T17:48:53;25.63;;;11.83;;
20344;SDS011;10330;48.816;9.278;2022-12-16T17:51:40;21.97;;;9.87;;
20344;SDS011;10330;48.816;9.278;2022-12-16T17:54:28;21.13;;;10.07;;
20344;SDS011;10330;48.816;9.278;2022-12-16T17:57:13;17.13;;;8.73;;
20344;SDS011;10330;48.816;9.278;2022-12-16T17:59:57;38.23;;;15.67;;
20344;SDS011;10330;48.816;9.278;2022-12-16T18:02:42;18.87;;;8.73;;
20344;SDS011;10330;48.816;9.278;2022-12-16T18:05:27;24.90;;;11.93;;
20344;SDS011;10330;48.816;9.278;2022-12-16T18:08:11;30.10;;;12.23;;
20344;SDS011;10330;48.816;9.278;2022-12-16T18:10:57;25.60;;;10.63;;
20344;SDS011;10330;48.816;9.278;2022-12-16T18:13:41;15.97;;;9.57;;
20344;SDS011;10330;48.816;9.278;2022-12-16T18:16:26;17.53;;;8.53;;
20344;SDS011;10330;48.816;9.278;2022-12-16T18:19:11;23.93;;;11.13;;
20344;SDS011;10330;48.816;9.278;2022-12-16T18:21:56;21.67;;;10.20;;
20344;SDS011;10330;48.816;9.278;2022-12-16T18:24:41;17.33;;;9.23;;
20344;SDS011;10330;48.816;9.278;2022-12-16T18:27:26;24.47;;;11.07;;
20344;SDS011;10330;48.816;9.278;2022-12-16T18:30:11;20.17;;;10.73;;
20344;SDS011;10330;48.816;9.278;2022-12-16T18:32:57;33.17;;;13.77;;
20344;SDS011;10330;48.816;9.278;2022-12-16T18:35:42;28.57;;;11.40;;
20344;SDS011;10330;48.816;9.278;2022-12-16T18:38:26;23.27;;;9.83;;
20344;SDS011;10330;48.816;9.278;2022-12-16T18:41:16;20.30;;;9.77;;